John Paul Eckstein — WDH6438 — position and weather

sailwx.info

Track history (hours):
 
Tides and Currents Weather Stations Pressure Air Temp Water Temp Dewpoint Dewpoint Depression Visibility Wind Speed Wind Dir Waves Ship Positions

John Paul Eckstein

Owner: Marquette Transportation Co. LLC, Paducah, KY. More information available from US FCC via Universal Licensing System and Coast Guard Vessel Documentation Center.

Last reported at 2018-May-19 15:53 UTC. Time now 2018-May-26 04:24 UTC.
Position N 32°45' W 091°09'.

Length 51 m; draft 3.2 m.

Type: Towing. MMSI: 367637960.

Date/timePositionNaut miles runAvg speedWind from/ knotsBaromVisibWave heightAir tempDewpointWater temp
2018-May-19 15:53N 32°45' W 091°09'4 3.6
2018-May-19 14:41N 32°44' W 091°04'0 2.0
2018-May-19 14:29N 32°44' W 091°04'4 2.9
2018-May-19 13:15N 32°41' W 091°06'1 4.1
2018-May-19 13:00N 32°40' W 091°07'2 3.3
2018-May-19 12:30N 32°40' W 091°08'2 4.0
2018-May-19 12:00N 32°38' W 091°09'2 4.1
2018-May-19 11:30N 32°36' W 091°08'2 3.9
2018-May-19 11:00N 32°34' W 091°07'2 3.6
2018-May-19 10:29N 32°33' W 091°06'2 4.1
2018-May-19 09:57N 32°31' W 091°07'2 4.2
2018-May-19 09:30N 32°29' W 091°07'2 4.0
2018-May-19 09:00N 32°27' W 091°05'2 4.1
2018-May-19 08:30N 32°26' W 091°03'2 4.1
2018-May-19 08:00N 32°26' W 091°01'2 3.6
2018-May-19 07:30N 32°24' W 090°60'2 4.4
2018-May-19 07:00N 32°22' W 091°00'2 3.6
2018-May-19 06:30N 32°21' W 090°58'2 4.3
2018-May-19 06:00N 32°21' W 090°56'2 3.8
2018-May-19 05:30N 32°20' W 090°54'1 3.0
2018-May-19 05:00N 32°18' W 090°55'2 3.1
2018-May-19 04:30N 32°17' W 090°56'2 3.8
2018-May-19 04:00N 32°16' W 090°58'2 3.2
2018-May-19 03:30N 32°15' W 090°59'2 4.3
2018-May-19 03:00N 32°13' W 090°59'2 3.8
2018-May-19 02:30N 32°11' W 090°60'2 3.6
2018-May-19 02:00N 32°09' W 091°00'2 3.7
2018-May-19 01:30N 32°07' W 091°01'2 3.2
2018-May-19 00:59N 32°07' W 091°03'1 2.6
2018-May-19 00:30N 32°08' W 091°04'2 3.9
2018-May-19 00:00N 32°07' W 091°07'2 3.5
2018-May-18 23:26N 32°06' W 091°05'1 1.2
2018-May-18 22:43N 32°05' W 091°04'2 4.2
2018-May-18 22:19N 32°04' W 091°04'1 3.9
2018-May-18 22:00N 32°02' W 091°04'86 2.5
2018-May-17 11:26N 30°37' W 091°18'6 2.9
2018-May-17 09:25N 30°32' W 091°16'  
2018-May-14 13:35N 29°57' W 090°22'3 4.2
2018-May-14 12:55N 29°56' W 090°19'4 0.8
2018-May-14 07:20N 29°58' W 090°15'  
2018-May-11 14:01N 31°16' W 091°39'0 8.0
2018-May-11 14:00N 31°16' W 091°39'7 7.5
2018-May-11 13:04N 31°17' W 091°31'1 9.6
2018-May-11 13:01N 31°17' W 091°31'6 9.5
2018-May-11 12:21N 31°23' W 091°28'3 9.5
2018-May-11 12:00N 31°26' W 091°31'5 9.7
2018-May-11 11:30N 31°31' W 091°31'5 9.6
2018-May-11 10:58N 31°33' W 091°25'710.0
2018-May-11 10:15N 31°41' W 091°24'2 9.6
2018-May-11 10:00N 31°43' W 091°23'510.2
2018-May-11 09:30N 31°48' W 091°22'4 8.3
2018-May-11 08:59N 31°51' W 091°19'5 9.2
2018-May-11 08:29N 31°53' W 091°14'510.1
2018-May-11 08:00N 31°57' W 091°11'4 8.6
2018-May-11 07:30N 31°59' W 091°07'5 9.8
2018-May-11 07:00N 32°03' W 091°04'5 9.4
2018-May-11 06:30N 32°07' W 091°06'3 6.9
2018-May-11 06:00N 32°07' W 091°02'4 9.0
2018-May-11 05:30N 32°11' W 090°60'510.0
2018-May-11 05:00N 32°16' W 090°58'5 9.3
2018-May-11 04:30N 32°19' W 090°54'1 2.6
2018-May-11 04:01N 32°20' W 090°54'4 7.1
2018-May-11 03:30N 32°21' W 090°59'3 6.8
2018-May-11 03:00N 32°24' W 090°59'5 9.4
2018-May-11 02:30N 32°27' W 091°04'5 8.5
2018-May-11 01:56N 32°31' W 091°06'4 8.8
2018-May-11 01:30N 32°35' W 091°07'5 8.6
2018-May-11 00:57N 32°40' W 091°08'  
Track history (hours):
 
Tides and Currents Weather Stations Pressure Air Temp Water Temp Dewpoint Dewpoint Depression Visibility Wind Speed Wind Dir Waves Ship Positions

John Paul Eckstein

Owner: Marquette Transportation Co. LLC, Paducah, KY. More information available from US FCC via Universal Licensing System and Coast Guard Vessel Documentation Center.

Last reported at 2018-May-19 15:53 UTC. Time now 2018-May-26 04:24 UTC.
Position N 32°45' W 091°09'.

Length 51 m; draft 3.2 m.

Type: Towing. MMSI: 367637960.

Date/timePositionNaut miles runAvg speedWind from/ knotsBaromVisibWave heightAir tempDewpointWater temp
2018-May-19 15:53N 32°45' W 091°09'4 3.6
2018-May-19 14:41N 32°44' W 091°04'0 2.0
2018-May-19 14:29N 32°44' W 091°04'4 2.9
2018-May-19 13:15N 32°41' W 091°06'1 4.1
2018-May-19 13:00N 32°40' W 091°07'2 3.3
2018-May-19 12:30N 32°40' W 091°08'2 4.0
2018-May-19 12:00N 32°38' W 091°09'2 4.1
2018-May-19 11:30N 32°36' W 091°08'2 3.9
2018-May-19 11:00N 32°34' W 091°07'2 3.6
2018-May-19 10:29N 32°33' W 091°06'2 4.1
2018-May-19 09:57N 32°31' W 091°07'2 4.2
2018-May-19 09:30N 32°29' W 091°07'2 4.0
2018-May-19 09:00N 32°27' W 091°05'2 4.1
2018-May-19 08:30N 32°26' W 091°03'2 4.1
2018-May-19 08:00N 32°26' W 091°01'2 3.6
2018-May-19 07:30N 32°24' W 090°60'2 4.4
2018-May-19 07:00N 32°22' W 091°00'2 3.6
2018-May-19 06:30N 32°21' W 090°58'2 4.3
2018-May-19 06:00N 32°21' W 090°56'2 3.8
2018-May-19 05:30N 32°20' W 090°54'1 3.0
2018-May-19 05:00N 32°18' W 090°55'2 3.1
2018-May-19 04:30N 32°17' W 090°56'2 3.8
2018-May-19 04:00N 32°16' W 090°58'2 3.2
2018-May-19 03:30N 32°15' W 090°59'2 4.3
2018-May-19 03:00N 32°13' W 090°59'2 3.8
2018-May-19 02:30N 32°11' W 090°60'2 3.6
2018-May-19 02:00N 32°09' W 091°00'2 3.7
2018-May-19 01:30N 32°07' W 091°01'2 3.2
2018-May-19 00:59N 32°07' W 091°03'1 2.6
2018-May-19 00:30N 32°08' W 091°04'2 3.9
2018-May-19 00:00N 32°07' W 091°07'2 3.5
2018-May-18 23:26N 32°06' W 091°05'1 1.2
2018-May-18 22:43N 32°05' W 091°04'2 4.2
2018-May-18 22:19N 32°04' W 091°04'1 3.9
2018-May-18 22:00N 32°02' W 091°04'86 2.5
2018-May-17 11:26N 30°37' W 091°18'6 2.9
2018-May-17 09:25N 30°32' W 091°16'  
2018-May-14 13:35N 29°57' W 090°22'3 4.2
2018-May-14 12:55N 29°56' W 090°19'4 0.8
2018-May-14 07:20N 29°58' W 090°15'  
2018-May-11 14:01N 31°16' W 091°39'0 8.0
2018-May-11 14:00N 31°16' W 091°39'7 7.5
2018-May-11 13:04N 31°17' W 091°31'1 9.6
2018-May-11 13:01N 31°17' W 091°31'6 9.5
2018-May-11 12:21N 31°23' W 091°28'3 9.5
2018-May-11 12:00N 31°26' W 091°31'5 9.7
2018-May-11 11:30N 31°31' W 091°31'5 9.6
2018-May-11 10:58N 31°33' W 091°25'710.0
2018-May-11 10:15N 31°41' W 091°24'2 9.6
2018-May-11 10:00N 31°43' W 091°23'510.2
2018-May-11 09:30N 31°48' W 091°22'4 8.3
2018-May-11 08:59N 31°51' W 091°19'5 9.2
2018-May-11 08:29N 31°53' W 091°14'510.1
2018-May-11 08:00N 31°57' W 091°11'4 8.6
2018-May-11 07:30N 31°59' W 091°07'5 9.8
2018-May-11 07:00N 32°03' W 091°04'5 9.4
2018-May-11 06:30N 32°07' W 091°06'3 6.9
2018-May-11 06:00N 32°07' W 091°02'4 9.0
2018-May-11 05:30N 32°11' W 090°60'510.0
2018-May-11 05:00N 32°16' W 090°58'5 9.3
2018-May-11 04:30N 32°19' W 090°54'1 2.6
2018-May-11 04:01N 32°20' W 090°54'4 7.1
2018-May-11 03:30N 32°21' W 090°59'3 6.8
2018-May-11 03:00N 32°24' W 090°59'5 9.4
2018-May-11 02:30N 32°27' W 091°04'5 8.5
2018-May-11 01:56N 32°31' W 091°06'4 8.8
2018-May-11 01:30N 32°35' W 091°07'5 8.6
2018-May-11 00:57N 32°40' W 091°08'  

Dump ship's entire track history